Portada
METAR-TAF:

METAR-TAF

Aeropuertos :

Pryor Field Regional Airport

Decatur, Alabama, Estados Unidos

latitud: 34-39-29N, longitud: 086-56-36W, altitud: 180 m

Observación

El informe se hizo hace 13 minutos, a las 18:07 UTC
Viento 7 kt del oeste-noroeste
Temperatura 12°C
Humedad 71%
Presión 1015 hPa
Visibilidad: 16.1 km
Nubes dispersas a una altura de 2400 ft
Cielo nuboso a una altura de 3100 ft

METAR: KDCU 271807Z AUTO 29007KT 10SM SCT024 BKN031 12/07 A2998 RMK AO2 T01170067

Hora: 12:20 (18:20 UTC)


TAF: falta

Observaciones y pronósticos meteorológicos de más de 4000 aeropuertos (mensajes METAR y TAF).

Los puntos amarillos y rojos representan las estaciones disponibles.

Ponga el ratón en el punto deseado para ver el nombre de la estación.

Haga clic para ver las observaciones y los pronósticos meteorológicos.

Para cambiar el mapa : haga clic en los botones verdes con una cruz de color negro para hacer un zoom, en el botón verde con un guión para alejar o en las flechas verdes para mapas adyacentes.


METAR-TAF: